createdAt,value
2017-07-28T00:00:23.316Z,0
2017-07-28T00:01:25.024Z,0
2017-07-28T00:02:26.718Z,0
2017-07-28T00:03:28.412Z,0
2017-07-28T00:04:30.110Z,0
2017-07-28T00:05:31.821Z,0
2017-07-28T00:06:33.525Z,0
2017-07-28T00:07:35.224Z,0
2017-07-28T00:08:36.926Z,0
2017-07-28T00:09:38.614Z,0
2017-07-28T00:10:40.318Z,0
2017-07-28T00:11:42.031Z,0
2017-07-28T00:12:43.738Z,0
2017-07-28T00:13:45.464Z,0
2017-07-28T00:14:47.165Z,0
2017-07-28T00:15:48.881Z,0
2017-07-28T00:16:50.565Z,0
2017-07-28T00:17:52.245Z,0
2017-07-28T00:18:53.986Z,0
2017-07-28T00:19:55.669Z,0
2017-07-28T00:20:57.360Z,0
2017-07-28T00:21:59.056Z,0
2017-07-28T00:23:00.743Z,0
2017-07-28T00:24:02.435Z,0
2017-07-28T00:25:04.111Z,0
2017-07-28T00:26:05.807Z,0
2017-07-28T00:27:07.507Z,0
2017-07-28T00:28:09.201Z,0
2017-07-28T00:29:10.885Z,0
2017-07-28T00:30:12.572Z,0
2017-07-28T00:31:14.265Z,0
2017-07-28T00:32:15.963Z,0
2017-07-28T00:33:17.673Z,0
2017-07-28T00:34:19.368Z,0
2017-07-28T00:35:21.076Z,0
2017-07-28T00:36:22.763Z,0
2017-07-28T00:37:24.448Z,0
2017-07-28T00:38:26.142Z,0
2017-07-28T00:39:27.833Z,0
2017-07-28T00:40:29.669Z,0
2017-07-28T00:41:31.360Z,0
2017-07-28T00:42:33.058Z,0
2017-07-28T00:43:34.749Z,0
2017-07-28T00:44:36.437Z,0
2017-07-28T00:45:38.133Z,0
2017-07-28T00:46:39.815Z,0
2017-07-28T00:47:41.513Z,0
2017-07-28T00:48:43.215Z,0
2017-07-28T00:49:44.930Z,0
2017-07-28T00:50:46.647Z,0
2017-07-28T00:51:48.353Z,0
2017-07-28T00:52:50.046Z,0
2017-07-28T00:53:51.738Z,0
2017-07-28T00:54:53.439Z,0
2017-07-28T00:55:55.121Z,0
2017-07-28T00:56:56.823Z,0
2017-07-28T00:57:58.523Z,0
2017-07-28T00:59:00.221Z,0
2017-07-28T01:00:01.921Z,0
2017-07-28T01:01:03.620Z,0
2017-07-28T01:02:05.334Z,0
2017-07-28T01:03:07.619Z,0
2017-07-28T01:04:08.662Z,0
2017-07-28T01:05:10.379Z,0
2017-07-28T01:06:12.068Z,0
2017-07-28T01:07:13.773Z,0
2017-07-28T01:08:15.460Z,0
2017-07-28T01:09:17.192Z,0
2017-07-28T01:10:18.884Z,0
2017-07-28T01:11:20.573Z,0
2017-07-28T01:12:22.289Z,0
2017-07-28T01:13:23.991Z,0
2017-07-28T01:14:25.732Z,0
2017-07-28T01:15:27.421Z,0
2017-07-28T01:16:29.135Z,0
2017-07-28T01:17:30.846Z,0
2017-07-28T01:18:32.554Z,0
2017-07-28T01:19:34.249Z,0
2017-07-28T01:20:35.966Z,0
2017-07-28T01:21:37.703Z,0
2017-07-28T01:22:39.413Z,0
2017-07-28T01:23:41.127Z,0
2017-07-28T01:24:42.821Z,0
2017-07-28T01:25:44.535Z,0
2017-07-28T01:26:46.248Z,0
2017-07-28T01:27:47.938Z,0
2017-07-28T01:28:49.625Z,0
2017-07-28T01:29:51.327Z,0
2017-07-28T01:30:53.051Z,0
2017-07-28T01:31:54.752Z,0
2017-07-28T01:32:56.444Z,0
2017-07-28T01:33:58.158Z,0
2017-07-28T01:34:59.873Z,0
2017-07-28T01:36:01.589Z,0
2017-07-28T01:37:03.294Z,0
2017-07-28T01:38:05.009Z,0
2017-07-28T01:39:06.703Z,0
2017-07-28T01:40:08.408Z,0
2017-07-28T01:41:10.118Z,0
2017-07-28T01:42:11.804Z,0
2017-07-28T01:43:13.509Z,0
2017-07-28T01:44:15.216Z,0
2017-07-28T01:45:16.918Z,0
2017-07-28T01:46:18.604Z,0
2017-07-28T01:47:20.312Z,0
2017-07-28T01:48:22.025Z,0
2017-07-28T01:49:23.729Z,0
2017-07-28T01:50:25.440Z,0
2017-07-28T01:51:27.145Z,0
2017-07-28T01:52:28.836Z,0
2017-07-28T01:53:30.548Z,0
2017-07-28T01:54:32.229Z,0
2017-07-28T01:55:33.931Z,0
2017-07-28T01:56:35.619Z,0
2017-07-28T01:57:37.305Z,0
2017-07-28T01:58:39.004Z,0
2017-07-28T01:59:40.682Z,0
2017-07-28T02:00:42.378Z,0
2017-07-28T02:01:44.093Z,0
2017-07-28T02:02:45.782Z,0
2017-07-28T02:03:47.469Z,0
2017-07-28T02:04:49.161Z,0
2017-07-28T02:05:50.842Z,0
2017-07-28T02:06:52.529Z,0
2017-07-28T02:07:54.235Z,0
2017-07-28T02:08:55.930Z,0
2017-07-28T02:09:57.616Z,0
2017-07-28T02:10:59.309Z,0
2017-07-28T02:12:00.992Z,0
2017-07-28T02:13:02.680Z,0
2017-07-28T02:14:04.388Z,0
2017-07-28T02:15:06.071Z,0
2017-07-28T02:16:07.773Z,0
2017-07-28T02:17:09.476Z,0
2017-07-28T02:18:11.169Z,0
2017-07-28T02:19:12.870Z,0
2017-07-28T02:20:14.556Z,0
2017-07-28T02:21:16.235Z,0
2017-07-28T02:22:17.926Z,0
2017-07-28T02:23:19.630Z,0
2017-07-28T02:24:21.324Z,0
2017-07-28T02:25:23.019Z,0
2017-07-28T02:26:24.713Z,0
2017-07-28T02:27:26.408Z,0
2017-07-28T02:28:28.104Z,0
2017-07-28T02:29:29.803Z,0
2017-07-28T02:30:31.510Z,0
2017-07-28T02:31:33.188Z,0
2017-07-28T02:32:34.877Z,0
2017-07-28T02:33:36.580Z,0
2017-07-28T02:34:38.280Z,0
2017-07-28T02:35:39.986Z,0
2017-07-28T02:36:41.676Z,0
2017-07-28T02:37:43.385Z,0
2017-07-28T02:38:45.080Z,0
2017-07-28T02:39:46.778Z,0
2017-07-28T02:40:48.501Z,0
2017-07-28T02:41:50.219Z,0
2017-07-28T02:42:51.923Z,0
2017-07-28T02:43:53.607Z,0
2017-07-28T02:44:55.302Z,0
2017-07-28T02:45:56.990Z,0
2017-07-28T02:46:58.687Z,0
2017-07-28T02:48:00.396Z,0
2017-07-28T02:49:02.076Z,0
2017-07-28T02:50:03.788Z,0
2017-07-28T02:51:05.496Z,0
2017-07-28T02:52:07.178Z,0
2017-07-28T02:53:08.892Z,0
2017-07-28T02:54:10.598Z,0
2017-07-28T02:55:12.292Z,0
2017-07-28T02:56:14.022Z,0
2017-07-28T02:57:15.836Z,0
2017-07-28T02:58:17.532Z,0
2017-07-28T02:59:19.247Z,0
2017-07-28T03:00:20.946Z,0
2017-07-28T03:01:22.674Z,0
2017-07-28T03:02:24.394Z,0
2017-07-28T03:03:26.089Z,0
2017-07-28T03:04:28.167Z,0
2017-07-28T03:05:29.872Z,0
2017-07-28T03:06:31.563Z,0
2017-07-28T03:07:33.263Z,0
2017-07-28T03:08:34.944Z,0
2017-07-28T03:09:36.631Z,0
2017-07-28T03:10:38.663Z,0
2017-07-28T03:11:40.388Z,0
2017-07-28T03:12:42.083Z,0
2017-07-28T03:13:43.773Z,0
2017-07-28T03:14:45.483Z,0
2017-07-28T03:15:47.599Z,0
2017-07-28T03:16:49.302Z,0
2017-07-28T03:17:51.215Z,0
2017-07-28T03:18:52.905Z,0
2017-07-28T03:19:54.613Z,0
2017-07-28T03:20:56.296Z,0
2017-07-28T03:21:58.001Z,0
2017-07-28T03:22:59.689Z,0
2017-07-28T03:24:02.347Z,0
2017-07-28T03:25:04.048Z,0
2017-07-28T03:26:06.653Z,0
2017-07-28T03:27:08.337Z,0
2017-07-28T03:28:10.039Z,0
2017-07-28T03:29:11.910Z,0
2017-07-28T03:30:13.634Z,0
2017-07-28T03:31:15.345Z,0
2017-07-28T03:32:17.048Z,0
2017-07-28T03:33:18.739Z,0
2017-07-28T03:34:20.527Z,0
2017-07-28T03:35:22.234Z,0
2017-07-28T03:36:23.933Z,0
2017-07-28T03:37:25.617Z,0
2017-07-28T03:38:27.321Z,0
2017-07-28T03:39:29.006Z,0
2017-07-28T03:40:30.698Z,0
2017-07-28T03:41:32.386Z,0
2017-07-28T03:42:34.373Z,0
2017-07-28T03:43:36.061Z,0
2017-07-28T03:44:37.750Z,0
2017-07-28T03:45:39.426Z,0
2017-07-28T03:46:41.157Z,0
2017-07-28T03:47:42.898Z,0
2017-07-28T03:48:44.607Z,0
2017-07-28T03:49:46.324Z,0
2017-07-28T03:50:48.015Z,0
2017-07-28T03:51:49.789Z,0
2017-07-28T03:52:51.518Z,0
2017-07-28T03:53:53.283Z,0
2017-07-28T03:54:55.399Z,0
2017-07-28T03:55:57.192Z,0
2017-07-28T03:56:58.882Z,0
2017-07-28T03:58:00.680Z,0
2017-07-28T03:59:02.411Z,0
2017-07-28T04:00:04.183Z,0
2017-07-28T04:01:05.984Z,0
2017-07-28T04:02:07.692Z,0
2017-07-28T04:03:09.407Z,0
2017-07-28T04:04:11.150Z,0
2017-07-28T04:05:12.895Z,0
2017-07-28T04:06:14.587Z,0
2017-07-28T04:07:16.496Z,0
2017-07-28T04:08:18.178Z,0
2017-07-28T04:09:19.902Z,0
2017-07-28T04:10:21.609Z,0
2017-07-28T04:11:23.321Z,0
2017-07-28T04:12:25.054Z,0
2017-07-28T04:13:26.852Z,0
2017-07-28T04:14:28.554Z,0
2017-07-28T04:15:30.312Z,0
2017-07-28T04:16:32.042Z,0
2017-07-28T04:17:33.783Z,0
2017-07-28T04:18:35.542Z,0
2017-07-28T04:19:37.254Z,0
2017-07-28T04:20:38.963Z,0
2017-07-28T04:21:40.683Z,0
2017-07-28T04:22:42.392Z,0
2017-07-28T04:23:44.091Z,0
2017-07-28T04:24:46.100Z,0
2017-07-28T04:25:47.801Z,0
2017-07-28T04:26:49.486Z,0
2017-07-28T04:27:51.197Z,0
2017-07-28T04:28:52.868Z,0
2017-07-28T04:29:54.550Z,0
2017-07-28T04:30:56.256Z,0
2017-07-28T04:31:57.938Z,0
2017-07-28T04:32:59.618Z,0
2017-07-28T04:34:01.306Z,0
2017-07-28T04:35:03.010Z,0
2017-07-28T04:36:04.699Z,0
2017-07-28T04:37:06.392Z,0
2017-07-28T04:38:08.076Z,0
2017-07-28T04:39:09.775Z,0
2017-07-28T04:40:11.462Z,0
2017-07-28T04:41:13.162Z,0
2017-07-28T04:42:14.846Z,0
2017-07-28T04:43:16.547Z,0
2017-07-28T04:44:18.246Z,0
2017-07-28T04:45:19.936Z,0
2017-07-28T04:46:21.630Z,0
2017-07-28T04:47:23.327Z,0
2017-07-28T04:48:25.042Z,0
2017-07-28T04:49:26.737Z,0
2017-07-28T04:50:28.412Z,0
2017-07-28T04:51:30.099Z,0
2017-07-28T04:52:31.796Z,0
2017-07-28T04:53:33.494Z,0
2017-07-28T04:54:35.186Z,0
2017-07-28T04:55:36.884Z,0
2017-07-28T04:56:38.574Z,0
2017-07-28T04:57:40.268Z,0
2017-07-28T04:58:41.957Z,0
2017-07-28T04:59:43.739Z,0
2017-07-28T05:00:45.443Z,0
2017-07-28T05:01:47.155Z,4
2017-07-28T05:02:48.867Z,0
2017-07-28T05:03:50.561Z,4
2017-07-28T05:04:52.292Z,4
2017-07-28T05:05:53.969Z,4
2017-07-28T05:06:55.657Z,4
2017-07-28T05:07:57.343Z,4
2017-07-28T05:08:59.031Z,4
2017-07-28T05:10:00.711Z,8
2017-07-28T05:11:02.404Z,8
2017-07-28T05:12:04.132Z,12
2017-07-28T05:13:05.822Z,16
2017-07-28T05:14:07.519Z,16
2017-07-28T05:15:09.219Z,20
2017-07-28T05:16:10.924Z,24
2017-07-28T05:17:12.631Z,28
2017-07-28T05:18:14.310Z,32
2017-07-28T05:19:16.004Z,40
2017-07-28T05:20:17.711Z,44
2017-07-28T05:21:19.406Z,52
2017-07-28T05:22:21.098Z,52
2017-07-28T05:23:22.806Z,60
2017-07-28T05:24:24.519Z,68
2017-07-28T05:25:26.211Z,72
2017-07-28T05:26:27.902Z,84
2017-07-28T05:27:29.587Z,96
2017-07-28T05:28:31.297Z,108
2017-07-28T05:29:32.993Z,116
2017-07-28T05:30:34.690Z,128
2017-07-28T05:31:36.381Z,140
2017-07-28T05:32:38.087Z,152
2017-07-28T05:33:39.775Z,164
2017-07-28T05:34:41.479Z,180
2017-07-28T05:35:43.175Z,192
2017-07-28T05:36:44.867Z,204
2017-07-28T05:37:46.564Z,220
2017-07-28T05:38:48.260Z,248
2017-07-28T05:39:49.957Z,280
2017-07-28T05:40:51.659Z,300
2017-07-28T05:41:53.343Z,328
2017-07-28T05:42:55.033Z,352
2017-07-28T05:43:56.737Z,372
2017-07-28T05:44:58.430Z,392
2017-07-28T05:46:00.123Z,416
2017-07-28T05:47:01.817Z,432
2017-07-28T05:48:03.574Z,460
2017-07-28T05:49:05.294Z,468
2017-07-28T05:50:06.997Z,504
2017-07-28T05:51:08.682Z,552
2017-07-28T05:52:10.394Z,596
2017-07-28T05:53:12.126Z,628
2017-07-28T05:54:13.815Z,716
2017-07-28T05:55:15.565Z,828
2017-07-28T05:56:17.325Z,872
2017-07-28T05:57:19.014Z,868
2017-07-28T05:58:20.731Z,844
2017-07-28T05:59:22.451Z,776
2017-07-28T06:00:24.154Z,780
2017-07-28T06:01:25.848Z,832
2017-07-28T06:02:27.565Z,828
2017-07-28T06:03:29.265Z,844
2017-07-28T06:04:30.980Z,872
2017-07-28T06:05:32.683Z,912
2017-07-28T06:06:34.389Z,1004
2017-07-28T06:07:36.088Z,1024
2017-07-28T06:08:37.787Z,1084
2017-07-28T06:09:39.471Z,1168
2017-07-28T06:10:41.175Z,1188
2017-07-28T06:11:42.880Z,1204
2017-07-28T06:12:44.591Z,1260
2017-07-28T06:13:46.288Z,1216
2017-07-28T06:14:47.969Z,1280
2017-07-28T06:15:49.681Z,1352
2017-07-28T06:16:51.410Z,1432
2017-07-28T06:17:53.097Z,1436
2017-07-28T06:18:54.789Z,1472
2017-07-28T06:19:56.494Z,1548
2017-07-28T06:20:58.202Z,1532
2017-07-28T06:21:59.913Z,1496
2017-07-28T06:23:01.625Z,1508
2017-07-28T06:24:03.318Z,1624
2017-07-28T06:25:05.012Z,1676
2017-07-28T06:26:06.722Z,1604
2017-07-28T06:27:08.431Z,1704
2017-07-28T06:28:10.139Z,1760
2017-07-28T06:29:11.854Z,1736
2017-07-28T06:30:13.553Z,1688
2017-07-28T06:31:15.245Z,1740
2017-07-28T06:32:16.972Z,1740
2017-07-28T06:33:18.666Z,1752
2017-07-28T06:34:20.371Z,1752
2017-07-28T06:35:22.856Z,1820
2017-07-28T06:36:25.171Z,1832
2017-07-28T06:37:27.251Z,1852
2017-07-28T06:38:29.031Z,1996
2017-07-28T06:39:30.742Z,2072
2017-07-28T06:40:32.452Z,2140
2017-07-28T06:41:34.147Z,2356
2017-07-28T06:42:35.840Z,2636
2017-07-28T06:43:37.558Z,2464
2017-07-28T06:44:39.267Z,1972
2017-07-28T06:45:40.990Z,1880
2017-07-28T06:46:42.693Z,1844
2017-07-28T06:47:44.396Z,1852
2017-07-28T06:48:46.096Z,1888
2017-07-28T06:49:47.800Z,1968
2017-07-28T06:50:49.491Z,2112
2017-07-28T06:51:51.188Z,2104
2017-07-28T06:52:52.895Z,2112
2017-07-28T06:53:54.588Z,2124
2017-07-28T06:54:56.299Z,2276
2017-07-28T06:55:58.020Z,2228
2017-07-28T06:56:59.716Z,1988
2017-07-28T06:58:01.429Z,2036
2017-07-28T06:59:03.146Z,1832
2017-07-28T07:00:04.840Z,1844
2017-07-28T07:01:06.537Z,1936
2017-07-28T07:02:08.232Z,2404
2017-07-28T07:03:09.945Z,2440
2017-07-28T07:04:11.669Z,2456
2017-07-28T07:05:13.351Z,2856
2017-07-28T07:06:15.067Z,3320
2017-07-28T07:07:17.505Z,3532
2017-07-28T07:08:19.201Z,3460
2017-07-28T07:09:20.904Z,3648
2017-07-28T07:10:22.605Z,3468
2017-07-28T07:11:24.313Z,3196
2017-07-28T07:12:26.007Z,3240
2017-07-28T07:13:27.707Z,3440
2017-07-28T07:14:29.407Z,3424
2017-07-28T07:15:31.123Z,3456
2017-07-28T07:16:32.830Z,3844
2017-07-28T07:17:34.520Z,4108
2017-07-28T07:18:36.218Z,3828
2017-07-28T07:19:37.939Z,3812
2017-07-28T07:20:39.660Z,3652
2017-07-28T07:21:41.388Z,3624
2017-07-28T07:22:43.084Z,3572
2017-07-28T07:23:44.778Z,3940
2017-07-28T07:24:46.482Z,3820
2017-07-28T07:25:48.196Z,3764
2017-07-28T07:26:49.906Z,3772
2017-07-28T07:27:51.618Z,4000
2017-07-28T07:28:53.339Z,4044
2017-07-28T07:29:55.041Z,4212
2017-07-28T07:30:56.742Z,4568
2017-07-28T07:31:58.463Z,4608
2017-07-28T07:33:00.173Z,4716
2017-07-28T07:34:01.926Z,4760
2017-07-28T07:35:03.627Z,5108
2017-07-28T07:36:05.333Z,4916
2017-07-28T07:37:07.034Z,5104
2017-07-28T07:38:08.718Z,5140
2017-07-28T07:39:10.411Z,5048
2017-07-28T07:40:12.104Z,5116
2017-07-28T07:41:13.796Z,5028
2017-07-28T07:42:15.501Z,5296
2017-07-28T07:43:17.192Z,5340
2017-07-28T07:44:18.882Z,4996
2017-07-28T07:45:20.576Z,5196
2017-07-28T07:46:22.285Z,4996
2017-07-28T07:47:23.992Z,4752
2017-07-28T07:48:25.680Z,4712
2017-07-28T07:49:27.364Z,4720
2017-07-28T07:50:29.095Z,4856
2017-07-28T07:51:30.792Z,5056
2017-07-28T07:52:32.478Z,4964
2017-07-28T07:53:34.167Z,5284
2017-07-28T07:54:35.849Z,5268
2017-07-28T07:55:37.545Z,5952
2017-07-28T07:56:39.243Z,5888
2017-07-28T07:57:40.935Z,5668
2017-07-28T07:58:42.626Z,5736
2017-07-28T07:59:44.328Z,5804
2017-07-28T08:00:46.018Z,7248
2017-07-28T08:01:47.727Z,7116
2017-07-28T08:02:49.404Z,6412
2017-07-28T08:03:51.099Z,5900
2017-07-28T08:04:52.853Z,5816
2017-07-28T08:05:54.554Z,4932
2017-07-28T08:06:56.236Z,4748
2017-07-28T08:07:57.920Z,4468
2017-07-28T08:08:59.613Z,3908
2017-07-28T08:10:01.313Z,4052
2017-07-28T08:11:03.035Z,4080
2017-07-28T08:12:04.744Z,4328
2017-07-28T08:13:06.430Z,3772
2017-07-28T08:14:08.155Z,4324
2017-07-28T08:15:09.845Z,4008
2017-07-28T08:16:11.527Z,4220
2017-07-28T08:17:13.224Z,3276
2017-07-28T08:18:14.932Z,3852
2017-07-28T08:19:16.647Z,3828
2017-07-28T08:20:18.343Z,4264
2017-07-28T08:21:20.042Z,4200
2017-07-28T08:22:21.863Z,4024
2017-07-28T08:23:23.568Z,3900
2017-07-28T08:24:25.247Z,3692
2017-07-28T08:25:26.962Z,3672
2017-07-28T08:26:28.665Z,3400
2017-07-28T08:27:30.404Z,3040
2017-07-28T08:28:32.087Z,3860
2017-07-28T08:29:33.780Z,3528
2017-07-28T08:30:35.472Z,3420
2017-07-28T08:31:37.178Z,3404
2017-07-28T08:32:38.879Z,3380
2017-07-28T08:33:40.560Z,3408
2017-07-28T08:34:42.266Z,3452
2017-07-28T08:35:43.969Z,3468
2017-07-28T08:36:45.672Z,3712
2017-07-28T08:37:47.364Z,3512
2017-07-28T08:38:49.056Z,3280
2017-07-28T08:39:50.768Z,3412
2017-07-28T08:40:52.467Z,3436
2017-07-28T08:41:54.180Z,3448
2017-07-28T08:42:55.885Z,3456
2017-07-28T08:43:57.573Z,3408
2017-07-28T08:44:59.257Z,3480
2017-07-28T08:46:00.974Z,3600
2017-07-28T08:47:02.685Z,3560
2017-07-28T08:48:04.383Z,3584
2017-07-28T08:49:06.092Z,2984
2017-07-28T08:50:07.793Z,3144
2017-07-28T08:51:09.494Z,2880
2017-07-28T08:52:11.284Z,2932
2017-07-28T08:53:12.982Z,3620
2017-07-28T08:54:14.777Z,3252
2017-07-28T08:55:16.472Z,3924
2017-07-28T08:56:18.178Z,3308
2017-07-28T08:57:19.882Z,3304
2017-07-28T08:58:21.612Z,4008
2017-07-28T08:59:23.406Z,3792
2017-07-28T09:00:25.095Z,3712
2017-07-28T09:01:26.791Z,3868
2017-07-28T09:02:28.501Z,3696
2017-07-28T09:03:30.218Z,3396
2017-07-28T09:04:31.922Z,3472
2017-07-28T09:05:33.608Z,3488
2017-07-28T09:06:35.318Z,3540
2017-07-28T09:07:37.028Z,3452
2017-07-28T09:08:38.734Z,3404
2017-07-28T09:09:40.448Z,3452
2017-07-28T09:10:42.163Z,3488
2017-07-28T09:11:43.917Z,3712
2017-07-28T09:12:45.614Z,3912
2017-07-28T09:13:47.323Z,3884
2017-07-28T09:14:49.032Z,3312
2017-07-28T09:15:50.742Z,3648
2017-07-28T09:16:52.444Z,3680
2017-07-28T09:17:54.138Z,3776
2017-07-28T09:18:55.841Z,3844
2017-07-28T09:19:57.541Z,3872
2017-07-28T09:20:59.226Z,3416
2017-07-28T09:22:00.928Z,3652
2017-07-28T09:23:02.638Z,3696
2017-07-28T09:24:04.347Z,3564
2017-07-28T09:25:06.101Z,3556
2017-07-28T09:26:07.789Z,3564
2017-07-28T09:27:09.496Z,3592
2017-07-28T09:28:11.207Z,3608
2017-07-28T09:29:12.900Z,3240
2017-07-28T09:30:14.620Z,3408
2017-07-28T09:31:16.334Z,3496
2017-07-28T09:32:18.040Z,3392
2017-07-28T09:33:19.744Z,3424
2017-07-28T09:34:21.434Z,3480
2017-07-28T09:35:23.139Z,3468
2017-07-28T09:36:24.835Z,3460
2017-07-28T09:37:26.542Z,3456
2017-07-28T09:38:28.237Z,3456
2017-07-28T09:39:29.970Z,3452
2017-07-28T09:40:31.665Z,3464
2017-07-28T09:41:33.384Z,3512
2017-07-28T09:42:35.107Z,3516
2017-07-28T09:43:36.854Z,3572
2017-07-28T09:44:38.568Z,3536
2017-07-28T09:45:40.267Z,3512
2017-07-28T09:46:41.976Z,3488
2017-07-28T09:47:43.686Z,3480
2017-07-28T09:48:45.408Z,3488
2017-07-28T09:49:47.137Z,3484
2017-07-28T09:50:48.821Z,3476
2017-07-28T09:51:50.537Z,3472
2017-07-28T09:52:52.238Z,3472
2017-07-28T09:53:53.934Z,3472
2017-07-28T09:54:55.626Z,3476
2017-07-28T09:55:57.324Z,3480
2017-07-28T09:56:59.013Z,3488
2017-07-28T09:58:00.732Z,3492
2017-07-28T09:59:02.467Z,3504
2017-07-28T10:00:04.148Z,3516
2017-07-28T10:01:05.857Z,3524
2017-07-28T10:02:07.537Z,3540
2017-07-28T10:03:09.234Z,3548
2017-07-28T10:04:10.914Z,3552
2017-07-28T10:05:12.611Z,3556
2017-07-28T10:06:14.309Z,3556
2017-07-28T10:07:16.022Z,3560
2017-07-28T10:08:17.725Z,3556
2017-07-28T10:09:19.405Z,3568
2017-07-28T10:10:21.105Z,3588
2017-07-28T10:11:22.803Z,3588
2017-07-28T10:12:24.500Z,3596
2017-07-28T10:13:26.197Z,3588
2017-07-28T10:14:27.899Z,3588
2017-07-28T10:15:29.609Z,3604
2017-07-28T10:16:31.320Z,3616
2017-07-28T10:17:33.021Z,3624
2017-07-28T10:18:34.734Z,3616
2017-07-28T10:19:36.454Z,3600
2017-07-28T10:20:38.171Z,3612
2017-07-28T10:21:39.864Z,3616
2017-07-28T10:22:41.592Z,3624
2017-07-28T10:23:43.292Z,3640
2017-07-28T10:24:45.011Z,3644
2017-07-28T10:25:46.741Z,3664
2017-07-28T10:26:48.454Z,3664
2017-07-28T10:27:50.166Z,3672
2017-07-28T10:28:51.870Z,3676
2017-07-28T10:29:53.607Z,3700
2017-07-28T10:30:55.316Z,3712
2017-07-28T10:31:57.038Z,3708
2017-07-28T10:32:58.734Z,3704
2017-07-28T10:34:00.447Z,3724
2017-07-28T10:35:02.127Z,3716
2017-07-28T10:36:03.824Z,3720
2017-07-28T10:37:05.526Z,3744
2017-07-28T10:38:07.234Z,3764
2017-07-28T10:39:08.932Z,3760
2017-07-28T10:40:10.632Z,3744
2017-07-28T10:41:12.312Z,3772
2017-07-28T10:42:14.002Z,3780
2017-07-28T10:43:15.757Z,3772
2017-07-28T10:44:17.434Z,3804
2017-07-28T10:45:19.129Z,3808
2017-07-28T10:46:20.829Z,3800
2017-07-28T10:47:22.535Z,3816
2017-07-28T10:48:24.233Z,3840
2017-07-28T10:49:25.997Z,3848
2017-07-28T10:50:27.681Z,3844
2017-07-28T10:51:29.382Z,3852
2017-07-28T10:52:31.122Z,3840
2017-07-28T10:53:32.849Z,3848
2017-07-28T10:54:34.559Z,3844
2017-07-28T10:55:36.254Z,3832
2017-07-28T10:56:37.955Z,3816
2017-07-28T10:57:39.650Z,3784
2017-07-28T10:58:41.355Z,3768
2017-07-28T10:59:43.096Z,3760
2017-07-28T11:00:44.829Z,3748
2017-07-28T11:01:46.521Z,3724
2017-07-28T11:02:48.237Z,3700
2017-07-28T11:03:49.945Z,3712
2017-07-28T11:04:51.641Z,3708
2017-07-28T11:05:53.488Z,3712
2017-07-28T11:06:55.192Z,3708
2017-07-28T11:07:56.905Z,3716
2017-07-28T11:08:58.594Z,3720
2017-07-28T11:10:00.530Z,3720
2017-07-28T11:11:02.245Z,3724
2017-07-28T11:12:03.945Z,3732
2017-07-28T11:13:05.671Z,3740
2017-07-28T11:14:07.360Z,3748
2017-07-28T11:15:09.106Z,3756
2017-07-28T11:16:10.816Z,3756
2017-07-28T11:17:12.554Z,3764
2017-07-28T11:18:14.256Z,3772
2017-07-28T11:19:15.962Z,3792
2017-07-28T11:20:17.666Z,3816
2017-07-28T11:21:19.399Z,3852
2017-07-28T11:22:21.102Z,3852
2017-07-28T11:23:22.799Z,3868
2017-07-28T11:24:24.508Z,3888
2017-07-28T11:25:26.229Z,3908
2017-07-28T11:26:27.950Z,3920
2017-07-28T11:27:29.644Z,3932
2017-07-28T11:28:31.330Z,3936
2017-07-28T11:29:33.056Z,3944
2017-07-28T11:30:34.752Z,3952
2017-07-28T11:31:36.451Z,3980
2017-07-28T11:32:38.146Z,3972
2017-07-28T11:33:39.831Z,3992
2017-07-28T11:34:41.527Z,3996
2017-07-28T11:35:43.264Z,4008
2017-07-28T11:36:44.954Z,4016
2017-07-28T11:37:46.657Z,4028
2017-07-28T11:38:48.358Z,4036
2017-07-28T11:39:50.156Z,4048
2017-07-28T11:40:51.850Z,4064
2017-07-28T11:41:53.543Z,4068
2017-07-28T11:42:55.251Z,4100
2017-07-28T11:43:56.936Z,4096
2017-07-28T11:44:58.632Z,4116
2017-07-28T11:46:00.322Z,4132
2017-07-28T11:47:02.041Z,4152
2017-07-28T11:48:03.740Z,4164
2017-07-28T11:49:05.442Z,4180
2017-07-28T11:50:07.146Z,4192
2017-07-28T11:51:08.924Z,4204
2017-07-28T11:52:10.620Z,4228
2017-07-28T11:53:12.319Z,4244
2017-07-28T11:54:14.030Z,4276
2017-07-28T11:55:15.806Z,4304
2017-07-28T11:56:17.493Z,4344
2017-07-28T11:57:19.318Z,4364
2017-07-28T11:58:21.027Z,4392
2017-07-28T11:59:22.761Z,4416
2017-07-28T12:00:24.461Z,4436
2017-07-28T12:01:26.169Z,4456
2017-07-28T12:02:27.872Z,4468
2017-07-28T12:03:29.572Z,4488
2017-07-28T12:04:31.267Z,4516
2017-07-28T12:05:32.972Z,4536
2017-07-28T12:06:34.674Z,4564
2017-07-28T12:07:36.364Z,4588
2017-07-28T12:08:38.071Z,4628
2017-07-28T12:09:39.789Z,4680
2017-07-28T12:10:41.477Z,4728
2017-07-28T12:11:43.167Z,4820
2017-07-28T12:12:44.868Z,4928
2017-07-28T12:13:46.593Z,5048
2017-07-28T12:14:48.279Z,5188
2017-07-28T12:15:50.016Z,5356
2017-07-28T12:16:51.709Z,5548
2017-07-28T12:17:53.425Z,5752
2017-07-28T12:18:55.123Z,5964
2017-07-28T12:19:56.834Z,6188
2017-07-28T12:20:58.541Z,6584
2017-07-28T12:22:00.230Z,7700
2017-07-28T12:23:01.917Z,44992
2017-07-28T12:24:03.626Z,95680
2017-07-28T12:25:05.318Z,119680
2017-07-28T12:26:07.033Z,122656
2017-07-28T12:27:08.744Z,125696
2017-07-28T12:28:10.459Z,125216
2017-07-28T12:29:12.206Z,121120
2017-07-28T12:30:13.921Z,122784
2017-07-28T12:31:15.622Z,124320
2017-07-28T12:32:17.328Z,128192
2017-07-28T12:33:19.025Z,127488
2017-07-28T12:34:20.761Z,125344
2017-07-28T12:35:22.501Z,128384
2017-07-28T12:36:24.232Z,125664
2017-07-28T12:37:25.926Z,124992
2017-07-28T12:38:27.633Z,125792
2017-07-28T12:39:29.366Z,128576
2017-07-28T12:40:31.084Z,129824
2017-07-28T12:41:32.823Z,128224
2017-07-28T12:42:34.554Z,128256
2017-07-28T12:43:36.278Z,128544
2017-07-28T12:44:37.998Z,123840
2017-07-28T12:45:39.734Z,123200
2017-07-28T12:46:41.445Z,130688
2017-07-28T12:47:43.158Z,130880
2017-07-28T12:48:44.873Z,127040
2017-07-28T12:49:46.593Z,125568
2017-07-28T12:50:48.312Z,122240
2017-07-28T12:51:50.017Z,121760
2017-07-28T12:52:51.729Z,124480
2017-07-28T12:53:53.468Z,124160
2017-07-28T12:54:55.180Z,125088
2017-07-28T12:55:56.938Z,131296
2017-07-28T12:56:58.669Z,134336
2017-07-28T12:58:00.415Z,130880
2017-07-28T12:59:02.152Z,130848
2017-07-28T13:00:03.852Z,132128
2017-07-28T13:01:05.641Z,129152
2017-07-28T13:02:07.445Z,131328
2017-07-28T13:03:09.173Z,130592
2017-07-28T13:04:10.879Z,125760
2017-07-28T13:05:12.595Z,117536
2017-07-28T13:06:14.322Z,111872
2017-07-28T13:07:16.041Z,115040
2017-07-28T13:08:17.776Z,121696
2017-07-28T13:09:19.501Z,127488
2017-07-28T13:10:21.236Z,126816
2017-07-28T13:11:22.934Z,125088
2017-07-28T13:12:24.649Z,121024
2017-07-28T13:13:26.387Z,119936
2017-07-28T13:14:28.203Z,115936
2017-07-28T13:15:29.941Z,113440
2017-07-28T13:16:31.689Z,113216
2017-07-28T13:17:33.415Z,119136
2017-07-28T13:18:35.144Z,127808
2017-07-28T13:19:36.877Z,127360
2017-07-28T13:20:38.609Z,124608
2017-07-28T13:21:40.344Z,128992
2017-07-28T13:22:42.074Z,142592
2017-07-28T13:23:43.802Z,140384
2017-07-28T13:24:45.565Z,103552
2017-07-28T13:25:47.269Z,95488
2017-07-28T13:26:49.003Z,97920
2017-07-28T13:27:50.717Z,96128
2017-07-28T13:28:52.425Z,78944
2017-07-28T13:29:54.154Z,96768
2017-07-28T13:30:55.878Z,125664
2017-07-28T13:31:57.600Z,59616
2017-07-28T13:32:59.329Z,14176
2017-07-28T13:34:01.032Z,13624
2017-07-28T13:35:02.738Z,13272
2017-07-28T13:36:04.443Z,12804
2017-07-28T13:37:06.209Z,12660
2017-07-28T13:38:07.903Z,12628
2017-07-28T13:39:09.638Z,12372
2017-07-28T13:40:11.343Z,12340
2017-07-28T13:41:13.056Z,12612
2017-07-28T13:42:14.759Z,13768
2017-07-28T13:43:16.487Z,16832
2017-07-28T13:44:18.200Z,32448
2017-07-28T13:45:19.904Z,65920
2017-07-28T13:46:21.603Z,74624
2017-07-28T13:47:23.327Z,57024
2017-07-28T13:48:25.028Z,24448
2017-07-28T13:49:26.761Z,13604
2017-07-28T13:50:28.495Z,13256
2017-07-28T13:51:30.231Z,13088
2017-07-28T13:52:31.947Z,12788
2017-07-28T13:53:33.681Z,12580
2017-07-28T13:54:35.387Z,12684
2017-07-28T13:55:37.107Z,12712
2017-07-28T13:56:38.808Z,16480
2017-07-28T13:57:40.544Z,16544
2017-07-28T13:58:42.240Z,16640
2017-07-28T13:59:43.968Z,16704
2017-07-28T14:00:45.697Z,16736
2017-07-28T14:01:47.405Z,16768
2017-07-28T14:02:49.111Z,16832
2017-07-28T14:03:50.831Z,16928
2017-07-28T14:04:52.607Z,17056
2017-07-28T14:05:54.321Z,17280
2017-07-28T14:06:56.030Z,18336
2017-07-28T14:07:57.756Z,22080
2017-07-28T14:08:59.453Z,37024